CA-0673 weather

Cycd
Nanaimo, British Columbia, Canada

Public forecast

Using degrees Celsius for public forecast. Weather courtesy of forecast.io.

METAR (pilot weather report)

Report is more than 2 hours old.

Closest report is Nanaimo Airport, 0.0 nm (0.1 km) E. Retrieved 2019/09/15 04:00 UTC (5 hours ago):

CYCD 150400Z VRB02KT 8SM FEW011 BKN045 OVC070 15/15 A2973 RMK SF2SC4AC2 LAST STFD OBS/NEXT 151300Z SLP068 DENSITY ALT 400FT

TAF (pilot weather forecast)

Forecast is more than 12 hours old.

Closest forecast is Nanaimo Airport, 0.0 nm (0.1 km) E. Retrieved 2019/09/14 00:00 UTC (1 day ago):

TAF CYCD 142338Z 1500/1504 13010G20KT P6SM -RA SCT012 OVC030 TEMPO 1500/1504 3SM SHRA BR SCT008 OVC012 BECMG 1500/1502 13008KT RMK NXT FCST WILL BE ISSUED AT 151445Z